Time;durP1;ratioP1;P1;durP2;ratioP2;P2;SDS_P1;SDS_P2;PMS_P1;PMS_P2;Temp;Humidity;BMP_temperature;BMP_pressure;BME280_temperature;BME280_humidity;BME280_pressure;Samples;Min_cycle;Max_cycle;Signal;HPM_P1;HPM_P2
2021/12/11 00:01:06;;;;;;;;;;;;;;;1.08;53.63;94120.97;5021667;28;20338;-67
2021/12/11 00:03:38;;;;;;;;;;;;;;;0.67;49.69;94124.16;5021249;28;19921;-67
2021/12/11 00:06:21;;;;;;;;;;;;;;;0.82;54.31;94130.47;5021505;28;19928;-67
2021/12/11 00:08:46;;;;;;;;;;;;;;;0.61;51.41;94140.50;5021183;28;20327;-67
2021/12/11 00:11:13;;;;;;;;;;;;;;;0.33;50.76;94139.63;5022429;28;19921;-67
2021/12/11 00:13:40;;;;;;;;;;;;;;;0.42;49.68;94143.16;5019826;28;20020;-67
2021/12/11 00:16:06;;;;;;;;;;;;;;;-0.11;51.40;94147.38;5007532;28;19928;-67
2021/12/11 00:18:31;;;;;;;;;;;;;;;-0.63;51.81;94152.22;5022210;28;19999;-67
2021/12/11 00:21:02;;;;;;;;;;;;;;;-0.65;51.26;94158.56;5022528;28;20000;-67
2021/12/11 00:23:38;;;;;;;;;;;;;;;-0.69;50.72;94150.16;5014820;28;19974;-67
2021/12/11 00:26:04;;;;;;;;;;;;;;;-1.12;52.10;94165.41;5021447;28;20301;-67
2021/12/11 00:28:29;;;;;;;;;;;;;;;-1.56;54.34;94174.50;5008114;28;20614;-67
2021/12/11 00:30:55;;;;;;;;;;;;;;;-1.84;55.39;94169.16;5021705;28;19924;-67
2021/12/11 00:33:21;;;;;;;;;;;;;;;-1.77;55.19;94177.25;5025422;28;19951;-67
2021/12/11 00:35:47;;;;;;;;;;;;;;;-1.85;54.34;94186.63;5025975;28;19952;-67
2021/12/11 00:38:13;;;;;;;;;;;;;;;-2.14;55.95;94197.00;5023114;28;19917;-67
2021/12/11 00:40:39;;;;;;;;;;;;;;;-2.20;56.93;94192.31;5025998;28;19921;-68
2021/12/11 00:43:05;;;;;;;;;;;;;;;-2.40;57.51;94205.28;5024176;28;19921;-67
2021/12/11 00:45:31;;;;;;;;;;;;;;;-2.45;57.76;94212.69;5024919;28;20380;-67
2021/12/11 00:47:58;;;;;;;;;;;;;;;-2.69;57.81;94216.41;5007376;28;20294;-63
2021/12/11 00:50:25;;;;;;;;;;;;;;;-2.70;58.20;94219.97;5025692;28;20122;-64
2021/12/11 00:52:54;;;;;;;;;;;;;;;-2.99;58.93;94228.47;5020911;28;20012;-64
2021/12/11 00:55:27;;;;;;;;;;;;;;;-3.36;60.25;94227.94;5025327;28;19978;-64
2021/12/11 00:58:09;;;;;;;;;;;;;;;-3.52;61.40;94238.81;5011729;28;20356;-66
2021/12/11 01:00:36;;;;;;;;;;;;;;;-3.66;60.90;94237.31;5025086;28;19950;-66
2021/12/11 01:03:02;;;;;;;;;;;;;;;-3.96;61.87;94241.41;5023795;28;19921;-66
2021/12/11 01:05:32;;;;;;;;;;;;;;;-3.98;62.27;94251.13;5025497;28;19929;-66
2021/12/11 01:07:57;;;;;;;;;;;;;;;-4.06;63.32;94252.56;5023716;28;19971;-66
2021/12/11 01:10:24;;;;;;;;;;;;;;;-4.29;63.10;94264.75;5025103;28;19948;-66
2021/12/11 01:12:55;;;;;;;;;;;;;;;-4.13;63.71;94264.38;5023658;28;19921;-66
2021/12/11 01:15:31;;;;;;;;;;;;;;;-3.93;62.90;94268.00;5007869;28;20647;-66
2021/12/11 01:21:00;;;;;;;;;;;;;;;-3.96;62.96;94286.47;5017215;28;20498;-66
2021/12/11 01:24:12;;;;;;;;;;;;;;;-3.67;62.95;94292.91;5019907;28;19994;-66
2021/12/11 01:26:17;;;;;;;;;;;;;;;-3.67;62.40;94293.72;5015675;28;20375;-66
2021/12/11 01:28:42;;;;;;;;;;;;;;;-3.46;62.84;94307.75;5019140;28;19997;-66
2021/12/11 01:31:08;;;;;;;;;;;;;;;-3.81;62.19;94305.22;5023211;28;20644;-66
2021/12/11 01:33:33;;;;;;;;;;;;;;;-3.60;62.13;94314.06;5023075;28;20410;-67
2021/12/11 01:35:59;;;;;;;;;;;;;;;-3.33;60.99;94316.22;5022492;28;20233;-66
2021/12/11 01:38:25;;;;;;;;;;;;;;;-2.86;59.44;94322.88;5037395;28;19974;-66
2021/12/11 01:40:52;;;;;;;;;;;;;;;-2.87;59.54;94318.63;5024307;28;20458;-66
2021/12/11 01:43:17;;;;;;;;;;;;;;;-2.56;58.45;94333.47;5002750;28;20016;-66
2021/12/11 01:45:44;;;;;;;;;;;;;;;-2.52;58.64;94345.31;5020342;28;19997;-66
2021/12/11 01:48:09;;;;;;;;;;;;;;;-3.27;60.72;94346.97;5010025;28;19949;-66
2021/12/11 01:50:36;;;;;;;;;;;;;;;-2.97;60.52;94354.19;5024168;28;20028;-66
2021/12/11 01:53:31;;;;;;;;;;;;;;;-3.09;62.89;94364.66;5021291;28;19943;-66
2021/12/11 01:55:58;;;;;;;;;;;;;;;-3.15;61.65;94370.38;5017305;28;20070;-66
2021/12/11 01:58:25;;;;;;;;;;;;;;;-3.43;62.34;94378.59;5010294;28;20648;-66
2021/12/11 02:00:53;;;;;;;;;;;;;;;-3.47;63.07;94385.00;5022716;28;20001;-66
2021/12/11 02:03:19;;;;;;;;;;;;;;;-3.58;62.48;94387.59;5010949;28;19990;-67
2021/12/11 02:05:44;;;;;;;;;;;;;;;-3.30;63.03;94390.63;5022688;28;20084;-66
2021/12/11 02:08:14;;;;;;;;;;;;;;;-3.27;61.93;94400.81;5010789;28;20099;-67
2021/12/11 02:10:44;;;;;;;;;;;;;;;-3.07;60.93;94398.38;5024076;28;20470;-67
2021/12/11 02:13:11;;;;;;;;;;;;;;;-2.89;60.34;94402.09;5011064;28;19965;-67
2021/12/11 02:15:42;;;;;;;;;;;;;;;-2.78;59.76;94408.25;5011750;28;20016;-66
2021/12/11 02:18:12;;;;;;;;;;;;;;;-2.86;60.56;94415.84;5010515;28;19970;-66
2021/12/11 02:20:41;;;;;;;;;;;;;;;-2.83;60.12;94418.19;5023132;28;20657;-66
2021/12/11 02:23:06;;;;;;;;;;;;;;;-2.98;60.74;94428.06;5010594;28;20435;-66
2021/12/11 02:25:33;;;;;;;;;;;;;;;-2.66;59.81;94429.84;5010438;28;20008;-66
2021/12/11 02:28:00;;;;;;;;;;;;;;;-2.62;59.93;94433.84;5012632;28;20451;-66
2021/12/11 02:30:45;;;;;;;;;;;;;;;-2.60;58.97;94442.38;5021503;28;20483;-66
2021/12/11 02:33:40;;;;;;;;;;;;;;;-2.35;59.61;94442.16;5020903;28;20536;-66
2021/12/11 02:36:11;;;;;;;;;;;;;;;-2.20;58.93;94455.69;5012137;28;19997;-66
2021/12/11 02:38:44;;;;;;;;;;;;;;;-2.04;57.27;94453.47;5016442;28;19974;-68
2021/12/11 02:41:12;;;;;;;;;;;;;;;-2.06;57.76;94450.19;5023671;28;19969;-66
2021/12/11 02:43:46;;;;;;;;;;;;;;;-2.33;58.30;94459.34;5010143;28;20144;-66
2021/12/11 02:46:11;;;;;;;;;;;;;;;-2.70;59.27;94473.59;5015989;28;20433;-66
2021/12/11 02:48:38;;;;;;;;;;;;;;;-2.49;60.20;94470.19;5022697;28;19997;-66
2021/12/11 02:51:11;;;;;;;;;;;;;;;-2.53;58.81;94474.81;5020691;28;19993;-66
2021/12/11 02:53:41;;;;;;;;;;;;;;;-2.30;58.03;94476.50;5038956;28;20031;-66
2021/12/11 02:56:09;;;;;;;;;;;;;;;-3.07;60.34;94477.34;5004781;28;20448;-66
2021/12/11 02:58:37;;;;;;;;;;;;;;;-2.86;60.39;94478.38;5016862;28;19973;-66
2021/12/11 03:01:08;;;;;;;;;;;;;;;-2.88;60.17;94481.91;5022380;28;20400;-66
2021/12/11 03:03:36;;;;;;;;;;;;;;;-3.05;61.53;94487.66;5021795;28;19993;-66
2021/12/11 03:06:18;;;;;;;;;;;;;;;-2.65;61.98;94496.66;5019923;28;20502;-66
2021/12/11 03:08:44;;;;;;;;;;;;;;;-2.33;59.77;94500.22;5016397;28;20641;-66
2021/12/11 03:11:10;;;;;;;;;;;;;;;-2.69;60.69;94500.44;5018999;28;20015;-66
2021/12/11 03:13:38;;;;;;;;;;;;;;;-2.58;59.48;94510.03;5013703;28;20124;-66
2021/12/11 03:16:03;;;;;;;;;;;;;;;-2.75;61.89;94507.81;5015086;28;19993;-66
2021/12/11 03:18:29;;;;;;;;;;;;;;;-2.97;61.36;94518.28;5038642;28;19980;-66
2021/12/11 03:20:54;;;;;;;;;;;;;;;-3.04;61.89;94534.41;5022489;28;20072;-66
2021/12/11 03:23:19;;;;;;;;;;;;;;;-2.93;62.10;94528.34;5018121;28;19993;-66
2021/12/11 03:25:45;;;;;;;;;;;;;;;-2.75;61.80;94539.09;5024054;28;20092;-67
2021/12/11 03:28:11;;;;;;;;;;;;;;;-2.70;62.33;94550.91;5013530;28;20012;-66
2021/12/11 03:30:37;;;;;;;;;;;;;;;-2.83;63.49;94545.84;5021566;28;20366;-66
2021/12/11 03:33:04;;;;;;;;;;;;;;;-2.65;62.96;94543.59;5042286;28;20375;-66
2021/12/11 03:35:29;;;;;;;;;;;;;;;-2.77;61.86;94553.19;5021422;28;20410;-67
2021/12/11 03:37:55;;;;;;;;;;;;;;;-3.08;63.38;94553.00;5017657;28;19974;-66
2021/12/11 03:40:20;;;;;;;;;;;;;;;-3.17;64.95;94559.72;5023155;28;20004;-66
2021/12/11 03:42:46;;;;;;;;;;;;;;;-2.97;64.39;94571.22;5013627;28;20426;-66
2021/12/11 03:45:15;;;;;;;;;;;;;;;-2.62;64.57;94566.78;5026674;28;19989;-66
2021/12/11 03:47:42;;;;;;;;;;;;;;;-2.68;62.08;94570.69;5005824;28;20494;-66
2021/12/11 03:50:11;;;;;;;;;;;;;;;-2.44;62.26;94571.47;5041690;28;19973;-67
2021/12/11 03:52:36;;;;;;;;;;;;;;;-2.39;61.06;94579.75;5016599;28;20017;-67
2021/12/11 03:55:04;;;;;;;;;;;;;;;-2.12;61.39;94579.31;5026135;28;20069;-67
2021/12/11 03:57:29;;;;;;;;;;;;;;;-2.57;61.51;94579.44;5013297;28;20079;-67
2021/12/11 03:59:55;;;;;;;;;;;;;;;-2.21;63.19;94589.66;5024974;28;20485;-66
2021/12/11 04:02:22;;;;;;;;;;;;;;;-2.16;60.51;94588.34;5012146;28;19974;-67
2021/12/11 04:04:48;;;;;;;;;;;;;;;-1.96;59.64;94592.88;5024978;28;20080;-67
2021/12/11 04:07:14;;;;;;;;;;;;;;;-2.08;60.25;94595.53;5012771;28;20048;-67
2021/12/11 04:09:39;;;;;;;;;;;;;;;-2.02;58.77;94602.88;5025057;28;20448;-67
2021/12/11 04:12:05;;;;;;;;;;;;;;;-2.50;60.84;94601.47;5021850;28;20025;-66
2021/12/11 04:14:33;;;;;;;;;;;;;;;-2.42;60.60;94608.66;5024818;28;19969;-67
2021/12/11 04:16:58;;;;;;;;;;;;;;;-2.93;62.34;94616.06;5022923;28;19992;-67
2021/12/11 04:19:24;;;;;;;;;;;;;;;-2.83;62.03;94614.41;5007745;28;20366;-67
2021/12/11 04:21:49;;;;;;;;;;;;;;;-2.66;62.68;94620.09;5019024;28;20013;-67
2021/12/11 04:24:15;;;;;;;;;;;;;;;-2.55;62.47;94617.47;5025847;28;19993;-67
2021/12/11 04:26:41;;;;;;;;;;;;;;;-2.58;61.16;94624.72;5003975;28;20059;-67
2021/12/11 04:29:08;;;;;;;;;;;;;;;-2.21;59.03;94626.19;5018980;28;20548;-67
2021/12/11 04:31:33;;;;;;;;;;;;;;;-2.43;59.24;94635.69;5020860;28;19993;-67
2021/12/11 04:33:59;;;;;;;;;;;;;;;-2.84;62.29;94633.63;5039240;28;19945;-67
2021/12/11 04:36:26;;;;;;;;;;;;;;;-2.96;61.83;94639.78;5023756;28;19989;-67
2021/12/11 04:38:52;;;;;;;;;;;;;;;-2.47;61.21;94642.09;5021710;28;19965;-67
2021/12/11 04:41:22;;;;;;;;;;;;;;;-2.76;60.78;94646.88;5014783;28;20072;-67
2021/12/11 04:43:47;;;;;;;;;;;;;;;-2.86;60.68;94651.13;5005308;28;20072;-67
2021/12/11 04:46:13;;;;;;;;;;;;;;;-2.85;60.85;94658.00;5016196;28;20091;-67
2021/12/11 05:04:50;;;;;;;;;;;;;;;-2.63;59.80;94674.59;5017380;28;20470;-67
2021/12/11 05:09:39;;;;;;;;;;;;;;;-3.63;64.31;94692.44;5038943;28;20060;-67
2021/12/11 05:12:13;;;;;;;;;;;;;;;-3.60;63.47;94693.97;5022632;28;20497;-67
2021/12/11 05:14:38;;;;;;;;;;;;;;;-3.85;64.08;94693.97;5022496;28;20060;-67
2021/12/11 05:17:03;;;;;;;;;;;;;;;-3.95;66.21;94699.00;5011000;28;20069;-67
2021/12/11 05:19:29;;;;;;;;;;;;;;;-4.45;65.90;94714.69;5009205;28;20029;-66
2021/12/11 05:21:54;;;;;;;;;;;;;;;-4.54;66.08;94710.09;4998766;28;19966;-66
2021/12/11 05:24:20;;;;;;;;;;;;;;;-4.35;65.35;94718.28;5004584;28;20080;-66
2021/12/11 05:26:45;;;;;;;;;;;;;;;-4.08;65.92;94719.88;5002102;28;20033;-66
2021/12/11 05:29:11;;;;;;;;;;;;;;;-3.94;65.09;94725.88;5004658;28;20029;-67
2021/12/11 05:31:36;;;;;;;;;;;;;;;-3.79;65.50;94722.16;5010987;28;20381;-66
2021/12/11 05:34:02;;;;;;;;;;;;;;;-3.42;63.74;94733.41;5024167;28;20524;-66
2021/12/11 05:36:31;;;;;;;;;;;;;;;-3.71;65.37;94738.97;5000581;28;19990;-66
2021/12/11 05:38:56;;;;;;;;;;;;;;;-3.59;64.06;94743.31;4984368;28;20467;-67
2021/12/11 05:41:21;;;;;;;;;;;;;;;-3.77;63.40;94742.84;4996440;28;19984;-67
2021/12/11 05:43:46;;;;;;;;;;;;;;;-4.35;64.93;94746.88;4995696;28;20000;-66
2021/12/11 05:46:13;;;;;;;;;;;;;;;-4.31;65.42;94747.50;5005620;28;20080;-66
2021/12/11 05:48:38;;;;;;;;;;;;;;;-4.06;67.33;94748.38;5038350;28;19993;-66
2021/12/11 05:51:04;;;;;;;;;;;;;;;-4.02;65.71;94751.56;5006272;28;20387;-66
2021/12/11 05:53:31;;;;;;;;;;;;;;;-3.68;63.80;94763.00;5002742;28;20615;-67
2021/12/11 05:55:57;;;;;;;;;;;;;;;-3.67;62.99;94769.88;5010738;28;20453;-67
2021/12/11 06:01:06;;;;;;;;;;;;;;;-4.13;63.81;94781.78;5021291;28;20108;-67
2021/12/11 06:03:31;;;;;;;;;;;;;;;-4.35;64.25;94785.84;5015568;28;20088;-67
2021/12/11 06:05:58;;;;;;;;;;;;;;;-3.93;62.74;94788.16;5011607;28;20347;-67
2021/12/11 06:08:23;;;;;;;;;;;;;;;-4.97;67.98;94795.19;5015949;28;20065;-66
2021/12/11 06:10:48;;;;;;;;;;;;;;;-4.90;66.87;94806.84;5019639;28;19989;-66
2021/12/11 06:13:13;;;;;;;;;;;;;;;-4.82;67.17;94811.53;4999258;28;19984;-66
2021/12/11 06:15:39;;;;;;;;;;;;;;;-4.46;65.74;94812.59;5003395;28;19990;-66
2021/12/11 06:18:04;;;;;;;;;;;;;;;-4.10;65.06;94817.97;4992624;28;20064;-66
2021/12/11 06:20:30;;;;;;;;;;;;;;;-3.95;63.63;94826.47;5018195;28;20033;-66
2021/12/11 06:22:55;;;;;;;;;;;;;;;-3.93;63.29;94834.16;5012323;28;20071;-66
2021/12/11 06:25:22;;;;;;;;;;;;;;;-3.73;63.67;94837.97;5019633;28;20012;-67
2021/12/11 06:27:47;;;;;;;;;;;;;;;-3.55;61.97;94848.00;5009514;28;20237;-66
2021/12/11 06:30:13;;;;;;;;;;;;;;;-4.64;65.14;94852.78;5017393;28;20434;-66
2021/12/11 06:32:38;;;;;;;;;;;;;;;-5.09;66.12;94861.75;4999115;28;20399;-66
2021/12/11 06:35:09;;;;;;;;;;;;;;;-5.10;65.67;94863.53;4998936;28;20041;-66
2021/12/11 06:37:34;;;;;;;;;;;;;;;-5.33;67.58;94865.81;4995932;28;19974;-66
2021/12/11 06:40:00;;;;;;;;;;;;;;;-5.10;67.31;94870.47;5014988;28;20406;-66
2021/12/11 06:42:25;;;;;;;;;;;;;;;-4.74;66.40;94879.41;5011365;28;20080;-67
2021/12/11 06:44:50;;;;;;;;;;;;;;;-4.94;66.85;94878.09;4999581;28;20495;-64
2021/12/11 06:47:15;;;;;;;;;;;;;;;-4.48;68.26;94886.41;5001731;28;19998;-66
2021/12/11 06:49:41;;;;;;;;;;;;;;;-4.48;65.30;94894.19;5003914;28;20402;-65
2021/12/11 06:52:08;;;;;;;;;;;;;;;-4.33;65.20;94905.31;4996413;28;20441;-66
2021/12/11 06:54:34;;;;;;;;;;;;;;;-4.04;65.01;94916.34;5003729;28;20483;-66
2021/12/11 06:56:59;;;;;;;;;;;;;;;-4.15;63.28;94907.63;4991643;28;19994;-66
2021/12/11 06:59:24;;;;;;;;;;;;;;;-4.07;62.95;94919.16;5010052;28;20036;-66
2021/12/11 07:01:49;;;;;;;;;;;;;;;-4.64;64.31;94926.38;5014321;28;20439;-66
2021/12/11 07:04:15;;;;;;;;;;;;;;;-4.68;65.22;94925.75;5020913;28;20028;-66
2021/12/11 07:06:41;;;;;;;;;;;;;;;-4.34;65.59;94929.66;5021009;28;20316;-66
2021/12/11 07:09:07;;;;;;;;;;;;;;;-4.07;63.61;94929.56;5007881;28;20406;-65
2021/12/11 07:11:32;;;;;;;;;;;;;;;-3.53;62.13;94929.41;5007967;28;19993;-66
2021/12/11 07:13:58;;;;;;;;;;;;;;;-3.35;66.14;94936.84;5015642;28;20432;-66
2021/12/11 07:16:24;;;;;;;;;;;;;;;-3.36;60.29;94954.25;5008843;28;19990;-66
2021/12/11 07:18:50;;;;;;;;;;;;;;;-3.42;61.29;94952.94;5019053;28;19970;-66
2021/12/11 07:21:15;;;;;;;;;;;;;;;-3.30;60.21;94963.38;5014288;28;20427;-66
2021/12/11 07:23:45;;;;;;;;;;;;;;;-3.20;60.17;94966.19;5015382;28;20007;-66
2021/12/11 07:26:15;;;;;;;;;;;;;;;-3.75;61.72;94974.28;5011181;28;20086;-66
2021/12/11 07:28:41;;;;;;;;;;;;;;;-4.72;65.00;94988.41;5040678;28;20104;-66
2021/12/11 07:31:06;;;;;;;;;;;;;;;-4.28;63.42;94990.81;5024252;28;20089;-66
2021/12/11 07:33:32;;;;;;;;;;;;;;;-4.51;64.40;94991.38;5026746;28;20370;-66
2021/12/11 07:35:57;;;;;;;;;;;;;;;-4.50;63.96;95007.78;5022029;28;20032;-66
2021/12/11 07:38:22;;;;;;;;;;;;;;;-4.57;63.83;95007.34;5018176;28;20036;-66
2021/12/11 07:40:51;;;;;;;;;;;;;;;-4.85;64.82;95017.72;5020004;28;20002;-66
2021/12/11 07:43:17;;;;;;;;;;;;;;;-5.04;65.35;95017.22;5041636;28;19989;-66
2021/12/11 07:45:42;;;;;;;;;;;;;;;-5.08;66.44;95017.44;5010894;28;19989;-66
2021/12/11 07:48:07;;;;;;;;;;;;;;;-5.05;65.88;95020.75;5016897;28;20000;-66
2021/12/11 07:50:33;;;;;;;;;;;;;;;-5.59;67.51;95031.75;5020691;28;20451;-66
2021/12/11 07:52:58;;;;;;;;;;;;;;;-5.75;68.48;95037.03;5009043;28;20001;-66
2021/12/11 07:55:23;;;;;;;;;;;;;;;-5.46;67.46;95026.63;5020835;28;20349;-67
2021/12/11 07:57:49;;;;;;;;;;;;;;;-5.46;68.27;95042.22;5022367;28;19970;-66
2021/12/11 08:00:16;;;;;;;;;;;;;;;-5.16;67.41;95043.06;5003485;28;20021;-66
2021/12/11 08:02:41;;;;;;;;;;;;;;;-5.06;67.67;95043.31;5014500;28;19981;-66
2021/12/11 08:05:06;;;;;;;;;;;;;;;-4.79;66.52;95054.66;5006349;28;19980;-66
2021/12/11 08:07:32;;;;;;;;;;;;;;;-5.04;67.20;95066.56;5018545;28;20611;-66
2021/12/11 08:09:57;;;;;;;;;;;;;;;-4.77;66.42;95061.41;5015050;28;20592;-66
2021/12/11 08:12:22;;;;;;;;;;;;;;;-4.48;65.89;95061.31;5013612;28;20370;-66
2021/12/11 08:14:49;;;;;;;;;;;;;;;-4.05;64.19;95065.53;5010219;28;19979;-67
2021/12/11 08:17:15;;;;;;;;;;;;;;;-3.82;62.91;95064.94;5021858;28;19970;-66
2021/12/11 08:19:40;;;;;;;;;;;;;;;-3.83;63.19;95076.28;5021147;28;20004;-68
2021/12/11 08:22:06;;;;;;;;;;;;;;;-4.38;64.23;95077.16;5017549;28;20056;-66
2021/12/11 08:24:31;;;;;;;;;;;;;;;-4.56;65.48;95085.22;5007020;28;20568;-64
2021/12/11 08:26:58;;;;;;;;;;;;;;;-4.36;65.19;95083.09;5009580;28;20012;-65
2021/12/11 08:29:23;;;;;;;;;;;;;;;-4.18;64.20;95090.63;5012404;28;20026;-66
2021/12/11 08:31:49;;;;;;;;;;;;;;;-4.08;64.05;95096.91;5022747;28;20051;-67
2021/12/11 08:34:15;;;;;;;;;;;;;;;-4.70;65.81;95104.28;5007384;28;19981;-67
2021/12/11 08:36:40;;;;;;;;;;;;;;;-4.72;66.30;95115.69;5015726;28;20014;-66
2021/12/11 08:39:06;;;;;;;;;;;;;;;-5.23;68.07;95124.81;5023538;28;19985;-67
2021/12/11 08:41:31;;;;;;;;;;;;;;;-4.95;67.53;95121.34;5019540;28;20384;-66
2021/12/11 08:44:00;;;;;;;;;;;;;;;-4.87;66.75;95128.69;5009512;28;19997;-66
2021/12/11 08:46:29;;;;;;;;;;;;;;;-4.30;65.43;95134.72;5023722;28;19992;-66
2021/12/11 08:48:58;;;;;;;;;;;;;;;-4.10;65.15;95143.00;5013746;28;20451;-66
2021/12/11 08:51:25;;;;;;;;;;;;;;;-4.11;64.43;95137.91;5021827;28;19993;-66
2021/12/11 08:53:50;;;;;;;;;;;;;;;-4.16;64.79;95140.78;5025708;28;19974;-66
2021/12/11 08:56:16;;;;;;;;;;;;;;;-3.92;63.52;95146.19;5017752;28;20840;-66
2021/12/11 08:58:41;;;;;;;;;;;;;;;-3.55;62.78;95147.31;5013881;28;20023;-66
2021/12/11 09:01:15;;;;;;;;;;;;;;;-3.66;63.90;95155.81;5018106;28;19965;-67
2021/12/11 09:03:46;;;;;;;;;;;;;;;-3.44;62.10;95162.19;5033025;28;19997;-66
2021/12/11 09:06:17;;;;;;;;;;;;;;;-3.31;61.20;95167.44;5009145;28;20039;-67
2021/12/11 09:08:47;;;;;;;;;;;;;;;-3.45;61.07;95164.00;5020389;28;19990;-67
2021/12/11 09:11:26;;;;;;;;;;;;;;;-3.54;62.23;95170.63;5019283;28;19993;-67
2021/12/11 09:13:57;;;;;;;;;;;;;;;-3.42;61.96;95181.16;5016110;28;20024;-66
2021/12/11 09:16:25;;;;;;;;;;;;;;;-2.85;60.28;95178.28;5009275;28;19997;-72
2021/12/11 09:18:53;;;;;;;;;;;;;;;-2.55;58.66;95179.72;5024706;28;19969;-72
2021/12/11 09:21:25;;;;;;;;;;;;;;;-2.10;57.28;95189.63;5025337;28;20056;-72
2021/12/11 09:24:11;;;;;;;;;;;;;;;-2.06;57.66;95185.84;5018320;28;20088;-72
2021/12/11 09:26:41;;;;;;;;;;;;;;;-1.63;58.49;95181.06;5023358;28;19994;-72
2021/12/11 09:29:26;;;;;;;;;;;;;;;-1.25;55.84;95189.63;5024010;28;20474;-72
2021/12/11 09:31:51;;;;;;;;;;;;;;;-0.93;53.61;95196.81;5020746;28;20837;-72
2021/12/11 09:34:18;;;;;;;;;;;;;;;-0.77;53.46;95198.28;5024781;28;20056;-72
2021/12/11 09:36:46;;;;;;;;;;;;;;;-1.38;55.15;95202.75;5024701;28;20458;-72
2021/12/11 09:39:16;;;;;;;;;;;;;;;-1.24;54.54;95205.19;5024278;28;20512;-72
2021/12/11 09:41:42;;;;;;;;;;;;;;;-1.14;54.08;95209.69;5023599;28;19980;-72
2021/12/11 09:44:08;;;;;;;;;;;;;;;-0.95;54.18;95214.41;5020086;28;20076;-72
2021/12/11 09:46:35;;;;;;;;;;;;;;;-1.01;54.73;95212.22;5017794;28;20389;-72
2021/12/11 09:49:00;;;;;;;;;;;;;;;-1.40;54.62;95217.69;4995058;28;19986;-72
2021/12/11 09:51:29;;;;;;;;;;;;;;;-1.17;54.38;95221.22;5016695;28;19999;-69
2021/12/11 09:53:55;;;;;;;;;;;;;;;-0.99;53.27;95221.63;5010628;28;20002;-71
2021/12/11 09:56:25;;;;;;;;;;;;;;;-0.81;53.41;95216.00;5022210;28;20478;-71
2021/12/11 09:58:51;;;;;;;;;;;;;;;-1.19;54.70;95223.09;5023084;28;20000;-71
2021/12/11 10:01:20;;;;;;;;;;;;;;;-1.36;54.82;95227.81;5024400;28;20445;-71
2021/12/11 10:03:48;;;;;;;;;;;;;;;-1.50;55.52;95231.44;5022744;28;20477;-71
2021/12/11 10:06:40;;;;;;;;;;;;;;;-1.28;54.36;95232.47;5024438;28;20443;-71
2021/12/11 10:09:17;;;;;;;;;;;;;;;-1.15;54.14;95242.81;5024398;28;20047;-72
2021/12/11 10:11:42;;;;;;;;;;;;;;;-1.38;54.48;95241.91;5008968;28;19990;-71
2021/12/11 10:14:09;;;;;;;;;;;;;;;-1.96;56.26;95248.63;5024182;28;20027;-71
2021/12/11 10:16:35;;;;;;;;;;;;;;;-1.80;55.79;95243.13;5007684;28;20390;-71
2021/12/11 10:19:00;;;;;;;;;;;;;;;-1.60;55.50;95241.72;5008094;28;19989;-71
2021/12/11 10:21:45;;;;;;;;;;;;;;;-1.93;56.21;95243.19;5022835;28;19973;-65
2021/12/11 10:24:12;;;;;;;;;;;;;;;-1.25;54.54;95247.09;5004562;28;19993;-71
2021/12/11 10:26:37;;;;;;;;;;;;;;;-1.25;54.13;95242.66;5005282;28;20005;-71
2021/12/11 10:29:04;;;;;;;;;;;;;;;-2.00;55.13;95244.59;5023856;28;19982;-71
2021/12/11 10:31:30;;;;;;;;;;;;;;;-0.92;53.06;95247.34;5014714;28;19998;-71
2021/12/11 10:33:56;;;;;;;;;;;;;;;-0.68;52.73;95247.25;5004233;28;20454;-71
2021/12/11 10:36:25;;;;;;;;;;;;;;;-0.40;52.03;95252.16;5017586;28;20099;-72
2021/12/11 10:38:51;;;;;;;;;;;;;;;-0.19;51.25;95253.09;5019557;28;20159;-71
2021/12/11 10:41:16;;;;;;;;;;;;;;;-0.49;52.97;95253.69;5022793;28;19969;-72
2021/12/11 10:43:46;;;;;;;;;;;;;;;-0.16;52.25;95264.28;5013712;28;20489;-71
2021/12/11 10:46:13;;;;;;;;;;;;;;;-0.28;52.11;95266.06;5003160;28;20470;-72
2021/12/11 10:48:38;;;;;;;;;;;;;;;-0.29;51.86;95264.38;5019313;28;20000;-71
2021/12/11 10:51:09;;;;;;;;;;;;;;;-2.72;57.72;95272.09;5007637;28;20178;-71
2021/12/11 10:53:35;;;;;;;;;;;;;;;-0.57;53.45;95270.78;5021346;28;19969;-71
2021/12/11 10:56:01;;;;;;;;;;;;;;;0.17;50.77;95270.44;5022260;28;19993;-71
2021/12/11 10:58:28;;;;;;;;;;;;;;;0.37;50.28;95270.66;5017435;28;19981;-71
2021/12/11 11:00:55;;;;;;;;;;;;;;;-0.08;51.64;95267.97;5004311;28;19993;-72
2021/12/11 11:03:20;;;;;;;;;;;;;;;0.31;49.97;95278.03;5009972;28;20472;-71
2021/12/11 11:05:45;;;;;;;;;;;;;;;0.31;49.69;95275.41;5022587;28;19990;-71
2021/12/11 11:08:11;;;;;;;;;;;;;;;0.53;49.50;95271.06;5009380;28;20426;-71
2021/12/11 11:10:38;;;;;;;;;;;;;;;0.55;49.96;95273.56;5002573;28;19980;-69
2021/12/11 11:13:05;;;;;;;;;;;;;;;0.98;52.99;95269.22;5020710;28;20423;-71
2021/12/11 11:15:31;;;;;;;;;;;;;;;0.89;48.76;95277.84;5013385;28;19998;-71
2021/12/11 11:17:56;;;;;;;;;;;;;;;-0.04;53.20;95286.88;5002436;28;20362;-71
2021/12/11 11:20:29;;;;;;;;;;;;;;;0.96;50.71;95268.53;5017130;28;20165;-71
2021/12/11 11:22:54;;;;;;;;;;;;;;;1.36;47.96;95282.72;5011654;28;19974;-71
2021/12/11 11:25:26;;;;;;;;;;;;;;;1.37;47.44;95282.59;5003756;28;20000;-71
2021/12/11 11:27:57;;;;;;;;;;;;;;;0.20;50.86;95293.75;5014135;28;20164;-71
2021/12/11 11:30:27;;;;;;;;;;;;;;;0.87;53.44;95283.22;5023678;28;20237;-71
2021/12/11 11:32:53;;;;;;;;;;;;;;;0.88;50.37;95281.44;5001936;28;20105;-70
2021/12/11 11:35:19;;;;;;;;;;;;;;;0.94;49.78;95286.16;5009515;28;20002;-71
2021/12/11 11:37:45;;;;;;;;;;;;;;;1.48;48.87;95286.13;5022913;28;20086;-71
2021/12/11 11:40:12;;;;;;;;;;;;;;;1.61;49.08;95292.03;5005217;28;19996;-71
2021/12/11 11:42:37;;;;;;;;;;;;;;;1.35;52.23;95297.66;5020824;28;20485;-71
2021/12/11 11:45:04;;;;;;;;;;;;;;;1.10;50.34;95291.81;4991265;28;20294;-71
2021/12/11 11:47:30;;;;;;;;;;;;;;;1.15;53.86;95290.59;4994186;28;20005;-71
2021/12/11 11:49:59;;;;;;;;;;;;;;;1.70;55.52;95292.22;5025634;28;19985;-71
2021/12/11 11:52:24;;;;;;;;;;;;;;;0.82;49.44;95288.03;5009764;28;20001;-71
2021/12/11 11:54:50;;;;;;;;;;;;;;;-0.10;52.78;95301.25;5006564;28;19974;-71
2021/12/11 11:57:18;;;;;;;;;;;;;;;0.72;57.80;95296.59;5005665;28;19966;-71
2021/12/11 11:59:44;;;;;;;;;;;;;;;1.70;49.14;95297.47;5015010;28;20003;-71
2021/12/11 12:02:11;;;;;;;;;;;;;;;2.14;48.11;95298.06;5026426;28;20070;-71
2021/12/11 12:04:36;;;;;;;;;;;;;;;1.80;48.27;95306.22;5010441;28;20017;-71
2021/12/11 12:07:03;;;;;;;;;;;;;;;0.02;53.65;95315.19;5010350;28;19989;-71
2021/12/11 12:09:29;;;;;;;;;;;;;;;1.04;56.59;95309.84;5026563;28;20109;-73
2021/12/11 12:11:55;;;;;;;;;;;;;;;1.69;54.86;95308.91;5012376;28;20530;-70
2021/12/11 12:14:21;;;;;;;;;;;;;;;2.01;50.28;95313.25;5002090;28;19970;-71
2021/12/11 12:16:46;;;;;;;;;;;;;;;1.69;54.66;95319.41;5010131;28;20080;-71
2021/12/11 12:19:12;;;;;;;;;;;;;;;2.09;53.33;95326.53;5008097;28;20450;-71
2021/12/11 12:21:39;;;;;;;;;;;;;;;2.21;51.16;95329.06;5024094;28;20031;-71
2021/12/11 12:24:04;;;;;;;;;;;;;;;2.46;48.15;95329.56;5004989;28;19994;-71
2021/12/11 12:26:30;;;;;;;;;;;;;;;2.48;51.12;95330.25;5001261;28;20044;-71
2021/12/11 12:28:55;;;;;;;;;;;;;;;2.40;49.50;95333.56;4985085;28;19998;-71
2021/12/11 12:31:22;;;;;;;;;;;;;;;2.30;51.77;95340.56;5003883;28;20383;-71
2021/12/11 12:33:47;;;;;;;;;;;;;;;2.46;50.37;95340.91;5005038;28;20667;-71
2021/12/11 12:36:13;;;;;;;;;;;;;;;2.19;47.55;95342.34;5017381;28;19997;-71
2021/12/11 12:38:38;;;;;;;;;;;;;;;2.36;50.12;95348.75;5025837;28;20015;-71
2021/12/11 12:41:09;;;;;;;;;;;;;;;2.56;46.11;95346.19;5024447;28;19969;-72
2021/12/11 12:46:11;;;;;;;;;;;;;;;2.07;49.21;95356.50;5004884;28;20350;-71
2021/12/11 12:48:36;;;;;;;;;;;;;;;1.67;48.38;95353.66;5021393;28;19993;-71
2021/12/11 12:51:03;;;;;;;;;;;;;;;1.76;51.77;95362.56;5022121;28;20388;-71
2021/12/11 12:53:33;;;;;;;;;;;;;;;1.72;48.76;95363.78;5003338;28;20489;-71
2021/12/11 12:56:07;;;;;;;;;;;;;;;1.40;50.92;95367.28;5004358;28;20386;-71
2021/12/11 12:58:44;;;;;;;;;;;;;;;1.72;52.87;95364.63;5004129;28;19972;-71
2021/12/11 13:01:10;;;;;;;;;;;;;;;1.58;48.62;95365.78;5025491;28;20552;-71
2021/12/11 13:03:36;;;;;;;;;;;;;;;1.35;51.25;95365.03;5015602;28;20096;-71
2021/12/11 13:06:03;;;;;;;;;;;;;;;1.60;49.36;95370.91;5004411;28;20239;-72
2021/12/11 13:08:33;;;;;;;;;;;;;;;1.71;51.39;95370.81;5021685;28;20080;-71
2021/12/11 13:11:00;;;;;;;;;;;;;;;1.09;54.68;95374.06;5020541;28;19990;-72
2021/12/11 13:13:26;;;;;;;;;;;;;;;1.34;50.67;95373.84;4999330;28;20000;-71
2021/12/11 13:15:53;;;;;;;;;;;;;;;1.53;53.75;95381.06;4984600;28;20076;-71